This is the latest recevied weather packets stored in our database for station/object KI4KWR-1. If no packets are shown the sender has not sent any weather packets the latest 10 day(s).
| Time | Temp. | Humidity | Pressure | Rain* | Wind** | Luminosity | Snow |
|---|---|---|---|---|---|---|---|
| 1788559204 | 29.44° C | 67% | 985.3 hPa | 0 mm | - | - | - |
| 1788558304 | 30° C | 66% | 985.6 hPa | 0 mm | - | - | - |
| 1788557404 | 32.78° C | 57% | 985.4 hPa | 0 mm | - | - | - |
| 1788556504 | 34.44° C | 53% | 985.1 hPa | 0 mm | - | - | - |
| 1788555604 | 33.89° C | 54% | 984.8 hPa | 0 mm | - | - | - |
| 1788554704 | 34.44° C | 51% | 985.1 hPa | 0 mm | - | - | - |
| 1788553804 | 34.44° C | 51% | 985.4 hPa | 0 mm | - | - | - |
| 1788552904 | 33.89° C | 53% | 985.6 hPa | 0 mm | - | - | - |
| 1788552004 | 35° C | 50% | 985.9 hPa | 0 mm | - | - | - |
| 1788551103 | 35.56° C | 48% | 986 hPa | 0 mm | - | - | - |
| 1788550204 | 37.22° C | 45% | 986.1 hPa | 0 mm | - | - | - |
| 1788549303 | 36.67° C | 44% | 986.3 hPa | 0 mm | - | - | - |
| 1788548403 | 36.11° C | 46% | 986.8 hPa | 0 mm | - | - | - |
| 1788547504 | 35.56° C | 49% | 986.9 hPa | 0 mm | - | - | - |
| 1788546603 | 35.56° C | 47% | 987.1 hPa | 0 mm | - | - | - |
| 1788545704 | 35.56° C | 49% | 987.2 hPa | 0 mm | - | - | - |
| 1788544803 | 35° C | 52% | 987.5 hPa | 0 mm | - | - | - |
| 1788543904 | 36.11° C | 47% | 987.6 hPa | 0 mm | - | - | - |
| 1788543004 | 35.56° C | 52% | 987.7 hPa | 0 mm | - | - | - |
| 1788542103 | 35° C | 54% | 987.9 hPa | 0 mm | - | - | - |
| 1788541204 | 35° C | 56% | 988.2 hPa | 0 mm | - | - | - |
| 1788540304 | 34.44° C | 56% | 988.2 hPa | 0 mm | - | - | - |
| 1788539403 | 35.56° C | 53% | 988.3 hPa | 0 mm | - | - | - |
| 1788538503 | 34.44° C | 57% | 988.4 hPa | 0 mm | - | - | - |
| 1788537604 | 33.89° C | 57% | 988.4 hPa | 0 mm | - | - | - |
* Rain latest hour (hover to see other rain measurements)
** Current wind speed in m/s (hover to see current wind gust speed)